createdAt,value
2023-05-07T00:04:18.543Z,3.43
2023-05-07T00:06:48.078Z,3.27
2023-05-07T00:09:17.566Z,5.83
2023-05-07T00:11:45.657Z,3.90
2023-05-07T00:14:13.723Z,4.03
2023-05-07T00:16:41.790Z,3.60
2023-05-07T00:19:09.929Z,3.53
2023-05-07T00:21:38.070Z,3.47
2023-05-07T00:24:07.935Z,3.60
2023-05-07T00:26:36.011Z,3.23
2023-05-07T00:29:04.116Z,3.60
2023-05-07T00:31:32.219Z,3.83
2023-05-07T00:34:00.320Z,4.40
2023-05-07T00:36:28.371Z,3.70
2023-05-07T00:38:57.303Z,4.33
2023-05-07T00:41:26.866Z,4.57
2023-05-07T00:43:54.979Z,4.63
2023-05-07T00:46:23.656Z,4.63
2023-05-07T00:48:52.660Z,5.23
2023-05-07T00:51:21.008Z,5.97
2023-05-07T00:53:49.510Z,6.30
2023-05-07T00:56:17.886Z,6.87
2023-05-07T00:58:47.384Z,6.63
2023-05-07T01:01:16.963Z,7.43
2023-05-07T01:03:45.425Z,8.17
2023-05-07T01:06:17.771Z,7.03
2023-05-07T01:08:47.173Z,7.93
2023-05-07T01:11:16.096Z,8.27
2023-05-07T01:13:44.334Z,8.87
2023-05-07T01:16:13.813Z,9.70
2023-05-07T01:18:42.021Z,9.30
2023-05-07T01:21:13.084Z,9.07
2023-05-07T01:23:43.472Z,9.53
2023-05-07T01:26:11.561Z,9.70
2023-05-07T01:40:24.052Z,10.83
2023-05-07T01:42:52.555Z,10.27
2023-05-07T01:45:20.843Z,10.13
2023-05-07T01:47:49.224Z,10.00
2023-05-07T01:50:19.331Z,10.00
2023-05-07T01:52:47.443Z,10.80
2023-05-07T01:55:15.653Z,10.43
2023-05-07T01:57:45.164Z,10.27
2023-05-07T02:00:14.127Z,10.07
2023-05-07T02:02:42.321Z,9.67
2023-05-07T02:05:11.019Z,9.67
2023-05-07T02:07:39.158Z,9.23
2023-05-07T02:10:08.547Z,10.50
2023-05-07T02:12:36.929Z,10.57
2023-05-07T02:15:07.634Z,10.10
2023-05-07T02:17:36.593Z,8.70
2023-05-07T02:20:05.677Z,8.77
2023-05-07T02:22:33.903Z,9.30
2023-05-07T02:25:02.017Z,9.00
2023-05-07T02:27:30.062Z,9.97
2023-05-07T02:29:58.152Z,8.53
2023-05-07T02:32:27.705Z,8.57
2023-05-07T02:42:37.437Z,10.17
2023-05-07T02:45:06.386Z,11.37
2023-05-07T02:47:35.872Z,12.33
2023-05-07T02:50:04.526Z,22.07
2023-05-07T02:52:32.584Z,15.03
2023-05-07T02:55:00.678Z,14.17
2023-05-07T02:57:28.794Z,15.03
2023-05-07T02:59:56.934Z,14.30
2023-05-07T03:07:57.034Z,14.93
2023-05-07T03:10:25.140Z,16.73
2023-05-07T03:12:53.271Z,15.57
2023-05-07T03:15:21.543Z,17.00
2023-05-07T03:17:49.740Z,16.63
2023-05-07T03:20:18.184Z,16.83
2023-05-07T03:22:46.428Z,16.47
2023-05-07T03:25:16.150Z,16.83
2023-05-07T03:27:44.458Z,17.33
2023-05-07T03:30:14.064Z,17.33
2023-05-07T03:32:42.224Z,16.77
2023-05-07T03:35:10.896Z,16.90
2023-05-07T03:37:39.768Z,16.13
2023-05-07T03:40:11.432Z,15.50
2023-05-07T03:42:41.451Z,15.43
2023-05-07T03:45:10.896Z,14.33
2023-05-07T03:47:39.005Z,15.80
2023-05-07T03:50:07.741Z,13.80
2023-05-07T03:52:35.821Z,13.67
2023-05-07T03:55:03.962Z,14.33
2023-05-07T03:57:32.013Z,14.17
2023-05-07T04:00:26.114Z,14.57
2023-05-07T04:02:54.263Z,14.47
2023-05-07T04:05:22.402Z,14.37
2023-05-07T04:07:50.454Z,14.30
2023-05-07T04:10:18.714Z,13.93
2023-05-07T04:12:46.819Z,15.83
2023-05-07T04:15:15.080Z,14.27
2023-05-07T04:17:44.566Z,15.07
2023-05-07T04:20:17.584Z,15.00
2023-05-07T04:22:45.753Z,15.23
2023-05-07T04:25:13.816Z,15.03
2023-05-07T04:27:41.860Z,15.97
2023-05-07T04:30:10.986Z,16.40
2023-05-07T04:32:39.259Z,14.80
2023-05-07T04:35:53.689Z,15.77
2023-05-07T04:38:24.600Z,15.77
2023-05-07T04:40:52.865Z,16.87
2023-05-07T04:43:20.971Z,16.90
2023-05-07T04:45:50.382Z,16.17
2023-05-07T04:48:20.196Z,14.80
2023-05-07T04:50:50.262Z,17.27
2023-05-07T04:53:18.822Z,15.80
2023-05-07T04:55:48.283Z,16.10
2023-05-07T04:58:16.700Z,15.70
2023-05-07T05:00:44.805Z,16.57
2023-05-07T05:03:13.175Z,16.73
2023-05-07T05:05:41.288Z,18.10
2023-05-07T05:08:09.443Z,16.80
2023-05-07T05:10:37.572Z,16.43
2023-05-07T05:13:07.116Z,18.50
2023-05-07T05:15:35.245Z,16.97
2023-05-07T05:18:03.421Z,16.73
2023-05-07T05:20:31.535Z,16.30
2023-05-07T05:22:59.655Z,15.87
2023-05-07T05:25:28.599Z,15.53
2023-05-07T05:27:56.822Z,16.13
2023-05-07T05:34:16.944Z,16.10
2023-05-07T05:36:45.695Z,15.13
2023-05-07T05:39:13.763Z,15.27
2023-05-07T05:41:41.833Z,15.30
2023-05-07T05:44:09.900Z,16.37
2023-05-07T05:46:38.037Z,15.73
2023-05-07T05:49:06.211Z,16.70
2023-05-07T05:51:35.757Z,15.40
2023-05-07T05:54:03.882Z,14.30
2023-05-07T05:56:31.960Z,14.73
2023-05-07T05:59:00.221Z,15.83
2023-05-07T06:01:28.506Z,16.03
2023-05-07T06:03:56.539Z,15.77
2023-05-07T06:06:24.645Z,15.43
2023-05-07T06:08:54.119Z,14.03
2023-05-07T06:11:22.458Z,14.67
2023-05-07T06:13:50.562Z,14.30
2023-05-07T06:16:18.749Z,14.03
2023-05-07T06:18:47.672Z,13.50
2023-05-07T06:21:16.081Z,14.13
2023-05-07T06:23:44.134Z,15.47
2023-05-07T06:26:13.608Z,15.63
2023-05-07T06:28:41.643Z,16.03
2023-05-07T06:31:17.116Z,15.47
2023-05-07T06:33:46.338Z,16.13
2023-05-07T06:36:14.744Z,16.40
2023-05-07T06:38:42.848Z,15.40
2023-05-07T06:41:11.076Z,15.73
2023-05-07T06:43:40.540Z,15.83
2023-05-07T06:46:08.781Z,16.03
2023-05-07T06:48:36.942Z,16.43
2023-05-07T06:51:05.333Z,16.40
2023-05-07T06:53:33.538Z,16.50
2023-05-07T06:56:01.565Z,17.90
2023-05-07T06:58:29.676Z,15.20
2023-05-07T07:00:59.096Z,16.77
2023-05-07T07:03:27.241Z,16.00
2023-05-07T07:05:55.377Z,15.57
2023-05-07T07:08:24.390Z,15.40
2023-05-07T07:10:52.465Z,16.33
2023-05-07T07:13:20.716Z,15.20
2023-05-07T07:15:48.967Z,14.97
2023-05-07T07:18:18.384Z,15.03
2023-05-07T07:20:46.665Z,14.97
2023-05-07T07:23:14.952Z,14.90
2023-05-07T07:25:43.066Z,15.10
2023-05-07T07:28:11.626Z,15.97
2023-05-07T07:30:40.109Z,14.80
2023-05-07T07:33:08.384Z,13.73
2023-05-07T07:35:38.042Z,14.67
2023-05-07T07:38:06.221Z,14.30
2023-05-07T07:43:04.418Z,14.57
2023-05-07T07:45:32.490Z,13.90
2023-05-07T07:48:00.549Z,14.33
2023-05-07T07:50:43.545Z,12.93
2023-05-07T07:53:14.937Z,14.27
2023-05-07T07:55:43.046Z,13.98
2023-05-07T07:58:11.164Z,12.77
2023-05-07T08:00:39.285Z,12.10
2023-05-07T08:03:08.474Z,12.10
2023-05-07T08:05:37.581Z,11.18
2023-05-07T08:08:06.922Z,11.70
2023-05-07T08:10:39.325Z,11.77
2023-05-07T08:13:08.012Z,11.45
2023-05-07T08:15:36.462Z,11.90
2023-05-07T08:18:05.138Z,12.90
2023-05-07T08:20:33.516Z,12.93
2023-05-07T08:23:01.648Z,12.07
2023-05-07T08:25:29.853Z,12.05
2023-05-07T08:27:59.335Z,11.93
2023-05-07T08:30:28.046Z,11.63
2023-05-07T08:32:56.210Z,12.07
2023-05-07T08:35:24.623Z,11.65
2023-05-07T08:37:52.846Z,9.98
2023-05-07T08:40:21.255Z,9.55
2023-05-07T08:42:53.712Z,8.88
2023-05-07T08:45:23.279Z,9.48
2023-05-07T08:47:58.899Z,9.30
2023-05-07T08:50:27.112Z,8.95
2023-05-07T08:52:55.360Z,9.40
2023-05-07T08:55:24.810Z,8.75
2023-05-07T08:57:54.031Z,8.02
2023-05-07T09:00:23.742Z,8.32
2023-05-07T09:02:52.048Z,8.15
2023-05-07T09:05:20.293Z,8.52
2023-05-07T09:07:48.942Z,8.05
2023-05-07T09:10:17.296Z,7.93
2023-05-07T09:12:45.382Z,6.90
2023-05-07T09:15:14.193Z,7.72
2023-05-07T09:17:45.308Z,7.72
2023-05-07T09:20:13.704Z,7.22
2023-05-07T09:22:41.884Z,7.55
2023-05-07T09:25:11.357Z,7.43
2023-05-07T09:27:40.011Z,7.55
2023-05-07T09:30:09.374Z,6.75
2023-05-07T09:32:39.212Z,7.70
2023-05-07T09:35:17.968Z,6.93
2023-05-07T09:37:46.736Z,6.80
2023-05-07T09:40:23.326Z,6.88
2023-05-07T09:42:51.712Z,6.75
2023-05-07T09:45:24.563Z,6.22
2023-05-07T09:47:57.075Z,6.22
2023-05-07T09:50:31.766Z,6.90
2023-05-07T09:52:59.935Z,6.10
2023-05-07T09:55:28.063Z,6.55
2023-05-07T09:57:56.772Z,6.55
2023-05-07T10:00:25.878Z,6.57
2023-05-07T10:02:54.863Z,6.40
2023-05-07T10:05:24.172Z,6.63
2023-05-07T10:07:54.989Z,6.15
2023-05-07T10:10:24.205Z,6.47
2023-05-07T10:12:53.450Z,7.75
2023-05-07T10:15:21.765Z,7.30
2023-05-07T10:29:38.028Z,5.50
2023-05-07T10:32:34.771Z,6.55
2023-05-07T10:35:07.026Z,5.57
2023-05-07T10:49:16.061Z,5.45
2023-05-07T10:51:46.816Z,4.90
2023-05-07T10:54:24.785Z,5.60
2023-05-07T10:56:53.113Z,4.85
2023-05-07T10:59:34.855Z,5.43
2023-05-07T11:02:05.227Z,5.63
2023-05-07T11:04:36.268Z,5.05
2023-05-07T11:07:37.632Z,5.97
2023-05-07T11:10:08.684Z,5.45
2023-05-07T11:12:50.607Z,5.35
2023-05-07T11:15:40.121Z,4.97
2023-05-07T11:18:08.480Z,5.50
2023-05-07T11:20:57.615Z,5.40
2023-05-07T11:24:11.166Z,4.72
2023-05-07T11:26:47.677Z,4.53
2023-05-07T11:29:19.466Z,4.38
2023-05-07T11:31:52.332Z,4.50
2023-05-07T11:34:24.762Z,4.47
2023-05-07T11:36:54.865Z,4.25
2023-05-07T11:43:41.129Z,5.43
2023-05-07T11:46:11.599Z,5.32
2023-05-07T11:48:41.019Z,5.32
2023-05-07T11:51:13.107Z,5.30
2023-05-07T11:53:44.064Z,4.82
2023-05-07T11:56:13.862Z,5.82
2023-05-07T11:58:42.676Z,5.30
2023-05-07T12:01:11.723Z,5.10
2023-05-07T12:03:43.767Z,5.38
2023-05-07T12:06:12.908Z,5.82
2023-05-07T12:08:45.289Z,5.53
2023-05-07T12:11:18.434Z,5.25
2023-05-07T12:13:46.922Z,5.25
2023-05-07T12:16:15.229Z,5.38
2023-05-07T12:18:43.414Z,6.30
2023-05-07T12:21:11.939Z,5.35
2023-05-07T12:23:42.213Z,5.85
2023-05-07T12:26:11.411Z,4.70
2023-05-07T12:32:30.760Z,5.35
2023-05-07T12:38:52.182Z,5.40
2023-05-07T12:41:26.689Z,5.80
2023-05-07T12:43:58.884Z,5.57
2023-05-07T12:46:27.099Z,5.28
2023-05-07T12:48:55.862Z,4.95
2023-05-07T12:51:24.852Z,5.13
2023-05-07T12:53:58.343Z,5.57
2023-05-07T12:56:26.477Z,5.70
2023-05-07T12:58:59.801Z,5.55
2023-05-07T13:01:31.785Z,5.70
2023-05-07T13:04:03.526Z,5.25
2023-05-07T13:06:33.268Z,5.32
2023-05-07T13:09:02.668Z,6.00
2023-05-07T13:11:30.902Z,5.57
2023-05-07T13:13:58.936Z,4.82
2023-05-07T13:16:27.125Z,4.68
2023-05-07T13:18:55.276Z,5.15
2023-05-07T13:21:23.358Z,4.90
2023-05-07T13:23:51.444Z,5.07
2023-05-07T13:26:26.896Z,5.07
2023-05-07T13:28:55.739Z,4.85
2023-05-07T13:31:23.974Z,4.07
2023-05-07T13:33:53.577Z,3.45
2023-05-07T13:36:21.794Z,3.33
2023-05-07T13:38:49.869Z,3.53
2023-05-07T13:41:18.052Z,3.25
2023-05-07T13:43:47.528Z,3.45
2023-05-07T13:46:15.697Z,3.85
2023-05-07T13:48:43.923Z,3.42
2023-05-07T13:51:12.063Z,3.50
2023-05-07T13:53:40.188Z,3.38
2023-05-07T13:56:08.376Z,3.88
2023-05-07T13:58:42.193Z,3.90
2023-05-07T14:01:18.022Z,4.13
2023-05-07T14:03:46.596Z,3.63
2023-05-07T14:06:14.750Z,3.40
2023-05-07T14:08:42.850Z,3.03
2023-05-07T14:11:10.980Z,3.85
2023-05-07T14:13:39.149Z,3.13
2023-05-07T14:16:07.806Z,3.20
2023-05-07T14:18:38.160Z,3.40
2023-05-07T14:21:08.620Z,3.00
2023-05-07T14:23:37.054Z,3.38
2023-05-07T14:26:05.362Z,3.10
2023-05-07T14:28:33.459Z,2.90
2023-05-07T14:31:01.996Z,3.30
2023-05-07T14:33:30.114Z,2.85
2023-05-07T14:35:59.637Z,2.97
2023-05-07T14:38:27.805Z,1.80
2023-05-07T14:40:57.231Z,1.23
2023-05-07T14:43:25.491Z,0.90
2023-05-07T14:45:54.162Z,0.82
2023-05-07T14:48:22.228Z,0.70
2023-05-07T14:50:50.481Z,0.55
2023-05-07T14:53:19.897Z,0.80
2023-05-07T14:55:48.956Z,1.05
2023-05-07T14:58:17.291Z,0.90
2023-05-07T15:00:45.415Z,1.00
2023-05-07T15:03:14.514Z,1.20
2023-05-07T15:05:42.817Z,1.20
2023-05-07T15:08:11.378Z,1.85
2023-05-07T15:10:42.523Z,2.58
2023-05-07T15:13:15.327Z,3.20
2023-05-07T15:15:44.851Z,2.20
2023-05-07T15:18:13.099Z,3.10
2023-05-07T15:20:41.900Z,3.40
2023-05-07T15:23:13.087Z,2.85
2023-05-07T15:25:42.867Z,2.78
2023-05-07T15:28:11.637Z,2.92
2023-05-07T15:30:39.742Z,2.72
2023-05-07T15:33:08.094Z,3.42
2023-05-07T15:35:36.507Z,3.03
2023-05-07T15:38:04.810Z,3.13
2023-05-07T15:40:33.845Z,3.88
2023-05-07T15:43:03.585Z,2.10
2023-05-07T15:45:31.828Z,2.45
2023-05-07T15:48:00.221Z,2.13
2023-05-07T15:50:29.645Z,2.40
2023-05-07T15:52:58.263Z,3.63
2023-05-07T15:55:26.594Z,1.70
2023-05-07T16:09:29.430Z,1.92
2023-05-07T16:11:57.672Z,2.10
2023-05-07T16:14:25.949Z,2.30
2023-05-07T16:16:54.775Z,2.97
2023-05-07T16:19:24.883Z,2.28
2023-05-07T16:21:53.155Z,2.30
2023-05-07T16:24:21.237Z,2.83
2023-05-07T16:26:50.732Z,2.92
2023-05-07T16:29:20.643Z,2.20
2023-05-07T16:31:48.735Z,1.85
2023-05-07T16:34:16.840Z,1.83
2023-05-07T16:36:44.939Z,1.88
2023-05-07T16:39:13.001Z,1.58
2023-05-07T16:41:41.072Z,1.92
2023-05-07T16:44:10.851Z,1.80
2023-05-07T16:46:38.940Z,2.23
2023-05-07T16:49:07.032Z,1.80
2023-05-07T16:51:35.938Z,1.70
2023-05-07T16:54:04.199Z,1.70
2023-05-07T16:56:32.356Z,2.07
2023-05-07T16:59:00.452Z,1.80
2023-05-07T17:01:32.591Z,1.70
2023-05-07T17:04:00.981Z,1.60
2023-05-07T17:06:29.267Z,1.80
2023-05-07T17:08:57.346Z,1.70
2023-05-07T17:11:27.960Z,1.93
2023-05-07T17:13:56.442Z,1.97
2023-05-07T17:16:24.663Z,2.33
2023-05-07T17:18:54.143Z,2.47
2023-05-07T17:21:22.279Z,2.50
2023-05-07T17:23:50.832Z,2.43
2023-05-07T17:26:18.954Z,3.33
2023-05-07T17:28:47.056Z,3.30
2023-05-07T17:31:15.195Z,3.73
2023-05-07T17:33:43.308Z,4.03
2023-05-07T17:36:12.773Z,4.10
2023-05-07T17:38:40.881Z,4.60
2023-05-07T17:41:08.964Z,4.83
2023-05-07T17:43:37.061Z,4.93
2023-05-07T17:46:05.194Z,4.90
2023-05-07T17:48:33.282Z,4.57
2023-05-07T17:51:04.440Z,4.80
2023-05-07T17:53:33.938Z,5.30
2023-05-07T17:56:02.009Z,4.80
2023-05-07T17:58:31.788Z,5.33
2023-05-07T18:00:59.976Z,5.33
2023-05-07T18:03:29.271Z,5.33
2023-05-07T18:05:57.752Z,5.73
2023-05-07T18:08:26.030Z,5.30
2023-05-07T18:10:55.485Z,6.43
2023-05-07T18:13:24.302Z,5.80
2023-05-07T18:15:52.629Z,5.53
2023-05-07T18:18:20.792Z,6.33
2023-05-07T18:20:50.962Z,6.23
2023-05-07T18:23:19.080Z,6.93
2023-05-07T18:25:47.903Z,6.00
2023-05-07T18:28:17.365Z,6.40
2023-05-07T18:30:45.442Z,6.80
2023-05-07T18:33:14.807Z,5.97
2023-05-07T18:35:45.660Z,6.83
2023-05-07T18:38:13.797Z,6.27
2023-05-07T18:40:44.113Z,5.70
2023-05-07T18:43:12.658Z,5.90
2023-05-07T18:45:42.170Z,5.97
2023-05-07T18:48:10.421Z,5.97
2023-05-07T18:50:38.525Z,6.50
2023-05-07T18:53:06.634Z,6.10
2023-05-07T19:06:58.839Z,7.33
2023-05-07T19:09:26.958Z,6.83
2023-05-07T19:11:56.620Z,8.13
2023-05-07T19:14:24.724Z,8.03
2023-05-07T19:16:52.817Z,9.83
2023-05-07T19:19:20.880Z,8.93
2023-05-07T19:21:48.944Z,7.70
2023-05-07T19:24:18.597Z,8.00
2023-05-07T19:26:46.775Z,7.00
2023-05-07T19:29:17.868Z,7.43
2023-05-07T19:31:47.088Z,7.90
2023-05-07T19:34:15.703Z,8.97
2023-05-07T19:36:43.858Z,7.90
2023-05-07T19:39:12.090Z,8.20
2023-05-07T19:41:43.257Z,8.57
2023-05-07T19:44:11.375Z,8.67
2023-05-07T19:46:44.578Z,10.57
2023-05-07T19:49:13.187Z,9.83
2023-05-07T19:51:42.895Z,10.60
2023-05-07T19:54:11.518Z,11.47
2023-05-07T19:56:41.931Z,10.80
2023-05-07T19:59:10.087Z,10.77
2023-05-07T20:01:39.107Z,11.07
2023-05-07T20:04:07.359Z,10.60
2023-05-07T20:06:35.646Z,13.27
2023-05-07T20:09:03.776Z,11.50
2023-05-07T20:11:32.005Z,13.03
2023-05-07T20:14:01.519Z,12.77
2023-05-07T20:16:29.650Z,12.55
2023-05-07T20:18:57.735Z,13.33
2023-05-07T20:33:00.313Z,12.97
2023-05-07T20:35:28.443Z,13.77
2023-05-07T20:37:56.783Z,12.70
2023-05-07T20:40:24.998Z,11.43
2023-05-07T20:42:53.182Z,12.07
2023-05-07T20:45:21.582Z,12.37
2023-05-07T20:47:49.775Z,12.27
2023-05-07T20:50:19.270Z,13.03
2023-05-07T20:52:47.354Z,11.98
2023-05-07T20:55:15.821Z,13.00
2023-05-07T20:57:43.989Z,12.48
2023-05-07T21:00:12.997Z,14.05
2023-05-07T21:02:41.288Z,14.53
2023-05-07T21:05:09.961Z,14.63
2023-05-07T21:11:58.009Z,13.85
2023-05-07T21:14:26.253Z,13.65
2023-05-07T21:16:54.476Z,14.38
2023-05-07T21:19:22.621Z,14.70
2023-05-07T21:21:50.793Z,15.23
2023-05-07T21:24:18.872Z,15.07
2023-05-07T21:26:46.944Z,13.83
2023-05-07T21:29:16.393Z,14.07
2023-05-07T21:31:44.447Z,13.33
2023-05-07T21:34:12.531Z,13.10
2023-05-07T21:36:40.820Z,13.10
2023-05-07T21:39:08.983Z,14.10
2023-05-07T21:41:37.531Z,14.80
2023-05-07T21:44:05.859Z,13.80
2023-05-07T21:46:35.546Z,14.47
2023-05-07T21:49:03.844Z,14.03
2023-05-07T21:51:34.258Z,13.80
2023-05-07T21:54:02.312Z,14.03
2023-05-07T21:56:30.374Z,13.33
2023-05-07T21:58:58.434Z,12.73
2023-05-07T22:01:26.518Z,14.37
2023-05-07T22:03:56.455Z,13.80
2023-05-07T22:06:25.233Z,13.40
2023-05-07T22:08:53.251Z,13.85
2023-05-07T22:11:21.871Z,13.60
2023-05-07T22:13:50.002Z,13.07
2023-05-07T22:27:52.336Z,14.73
2023-05-07T22:30:20.579Z,13.65
2023-05-07T22:32:48.852Z,14.05
2023-05-07T22:35:17.008Z,14.88
2023-05-07T22:37:45.059Z,15.77
2023-05-07T22:40:13.863Z,15.33
2023-05-07T22:42:42.116Z,17.40
2023-05-07T22:45:12.777Z,15.23
2023-05-07T22:47:41.026Z,16.27
2023-05-07T22:53:59.603Z,14.97
2023-05-07T22:56:27.656Z,14.15
2023-05-07T22:58:55.763Z,15.73
2023-05-07T23:01:25.269Z,15.35
2023-05-07T23:03:53.394Z,14.77
2023-05-07T23:06:21.479Z,15.82
2023-05-07T23:08:49.514Z,15.63
2023-05-07T23:15:09.321Z,16.65
2023-05-07T23:17:39.046Z,16.42
2023-05-07T23:20:08.629Z,16.83
2023-05-07T23:22:36.763Z,16.65
2023-05-07T23:25:05.348Z,17.08
2023-05-07T23:27:33.392Z,17.13
2023-05-07T23:30:01.459Z,17.13
2023-05-07T23:32:29.583Z,17.33
2023-05-07T23:34:59.081Z,15.77
2023-05-07T23:37:27.124Z,16.42
2023-05-07T23:39:55.323Z,17.40
2023-05-07T23:42:23.448Z,16.95
2023-05-07T23:44:51.907Z,18.37
2023-05-07T23:47:20.092Z,16.80
2023-05-07T23:57:21.355Z,17.63
2023-05-07T23:59:49.458Z,19.67
